首页
METAR-TAF:

METAR-TAF

机场 :

Kerrville Municipal Airport (Louis Schreiner Field)

Kerrville, 得克萨斯州, 美国

纬度: 29-58N, 经度: 099-05W, 海拔: 493米

当前天气观测

该预报发布于38分钟前的15:35 UTC
风速5节,风向南转西南
温度 30°C
湿度 62%
气压 1017 hPa
能見度: 11.3公里
散云层高于2500英尺
多云层高于3200英尺

METAR: KERV 241535Z AUTO 20005KT 7SM SCT025 BKN032 30/22 A3003 RMK AO2 T02970221

时间: 11:13 (16:13 UTC)


TAF: 丢失

超过4000个机场的气象观测和天气预报(METAR&TAF报告)。

可查询的气象台以黄色和红色小点在地图上表示。

将鼠标移到小点上方,可查看气象台名称。

然后点击查看天气观测和预报。

如需切换地图:点击带黑十字的绿色按钮放大地图;点击带横线的绿色按钮缩小地图;或者点击绿色箭头查看邻近地区的地图。


METAR-TAF: